Skip Navigation Links
NOAA logo - Click to go to the NOAA homepage
NOAA's National Weather Service
Alaska Aviation Weather Unit
  NWS logo - Click to go to the NWS homepage
Left Navbar Graphic     03 AKDT = 11 GMT

   
NOAA is celebrating 200 years of science, service, and stewardship. Visit the NOAA 200th celebration Web site to learn more.
USA.gov is the U.S. Government's official Web portal to all Federal, state and local government Web resources and services.
Facebook
NWS on Facebook

AAWU Home :: Display TAF Add Bookmark
TAF PAED 290915Z 2909/3009 VRB06KT 1600 -SN OVC015 620158
      QNH2950INS
      TEMPO 2909/2914 3200 -SN BKN020
      BECMG 2914/2915 VRB06KT 3200 -SN BKN015 620159 QNH2952INS
      TEMPO 2915/3001 1600 -SN BKN007 620079
      BECMG 3002/3003 VRB06KT 9000 -SN SCT015 BKN045 620456
      QNH2958INS TX01/3001Z TNM05/2912Z=

PAED 290543Z 00000KT 10SM -SN FEW005 OVC024 M02/M02 A2950= METAR PAED 290558Z 00000KT 9SM -SN FEW005 OVC025 M02/M02 A2950= PAED 290619Z 00000KT 10SM -SN FEW006 OVC026 M02/M02 A2950= METAR PAED 290658Z 00000KT 5SM -SN BR OVC029 M01/M01 A2951= PAED 290708Z 00000KT 5SM -SN BR SCT028 OVC035 M02/M02 A2951= PAED 290737Z 00000KT 3SM -SN BR OVC028 M01/M02 A2951= PAED 290748Z 00000KT 2 1/2SM -SN BR OVC025 M01/M02 A2951= METAR PAED 290758Z 00000KT 2SM -SN BR OVC021 M01/M01 A2951= PAED 290810Z 00000KT 1 3/4SM -SN BR OVC021 M01/M01 A2951= PAED 290820Z 00000KT 2 1/2SM -SN BR OVC020 M01/M01 A2951= PAED 290831Z 00000KT 2SM -SN BR OVC017 M02/M02 A2951= PAED 290851Z 00000KT 1 1/2SM -SN BR OVC015 M02/M02 A2951= METAR PAED 290858Z 00000KT 1 1/2SM -SN BR OVC014 M02/M02 A2951= PAED 290910Z 00000KT 1 1/2SM -SN BR OVC015 M02/M02 A2951= METAR PAED 290958Z 22004KT 1SM R06/5000FT -SN BR VV016 M02/M02 A2951= PAED 291008Z 21005KT 3/4SM R06/4500FT -SN BR VV014 M02/M02 A2951= PAED 291015Z 21004KT 3/4SM R06/4000FT -SN BR VV013 M02/M02 A2950= PAED 291025Z 22006KT 1SM R06/5500FT -SN BR VV014 M02/M02 A2950= METAR PAED 291058Z 21005KT 3/4SM R06/4500FT -SN BR VV013 M02/M02 A2950 RMK AO2A SLPNO P0000 T10201020 CHINO RWY24=
 Alaska TAF Map

NOAA's National Weather Service
Alaska Aviation Weather Unit
6930 Sand Lake Road
Anchorage, AK 99502-1845
Disclaimer
Credits
Glossary
Privacy Policy
About Us
Career Opportunities
Contact AAWU Internet Services Site last modified: April, 17th 2012